Time;durP1;ratioP1;P1;durP2;ratioP2;P2;SDS_P1;SDS_P2;PMS_P1;PMS_P2;Temp;Humidity;BMP_temperature;BMP_pressure;BME280_temperature;BME280_humidity;BME280_pressure;Samples;Min_cycle;Max_cycle;Signal;HPM_P1;HPM_P2
2023/01/07 00:01:32;;;;;;;0.50;0.50;;;;;;;7.69;77.06;100219.06;5050527;28;20201;-66
2023/01/07 00:04:01;;;;;;;0.50;0.50;;;;;;;7.56;77.88;100209.78;5050353;28;20233;-67
2023/01/07 00:06:29;;;;;;;0.60;0.60;;;;;;;7.56;78.89;100222.56;5050695;28;20204;-67
2023/01/07 00:08:57;;;;;;;0.50;0.50;;;;;;;7.55;78.00;100236.16;5049030;28;20224;-67
2023/01/07 00:11:27;;;;;;;0.50;0.50;;;;;;;7.42;78.11;100224.31;5050322;28;20668;-67
2023/01/07 00:13:55;;;;;;;0.40;0.40;;;;;;;7.41;78.24;100243.84;5050505;28;20201;-66
2023/01/07 00:16:24;;;;;;;0.50;0.50;;;;;;;7.37;78.29;100239.59;5050455;28;20270;-66
2023/01/07 00:18:51;;;;;;;0.70;0.70;;;;;;;7.35;78.76;100238.78;5049699;28;20200;-67
2023/01/07 00:21:19;;;;;;;0.40;0.40;;;;;;;7.38;79.04;100242.16;5050499;28;20708;-66
2023/01/07 00:23:47;;;;;;;0.40;0.40;;;;;;;7.42;78.84;100244.72;5051217;28;20200;-66
2023/01/07 00:26:16;;;;;;;0.40;0.40;;;;;;;7.39;78.51;100238.78;5050244;28;20193;-66
2023/01/07 00:28:46;;;;;;;0.50;0.50;;;;;;;7.38;78.78;100234.53;5050682;28;20574;-66
2023/01/07 00:31:15;;;;;;;1.20;1.20;;;;;;;7.38;78.76;100241.31;5050581;28;20558;-66
2023/01/07 00:33:50;;;;;;;0.53;0.53;;;;;;;7.34;79.04;100237.94;5050212;28;20200;-67
2023/01/07 00:36:18;;;;;;;0.40;0.40;;;;;;;7.35;79.46;100239.63;5050284;28;20207;-67
2023/01/07 00:38:45;;;;;;;0.53;0.53;;;;;;;7.35;78.92;100242.19;5050510;28;20193;-67
2023/01/07 00:41:12;;;;;;;0.60;0.60;;;;;;;7.24;79.07;100230.31;5050154;28;20600;-66
2023/01/07 00:43:38;;;;;;;0.53;0.53;;;;;;;7.34;79.03;100247.28;5050269;28;20211;-67
2023/01/07 00:46:07;;;;;;;0.60;0.60;;;;;;;7.30;78.86;100253.28;5050353;28;20593;-67
2023/01/07 00:48:33;;;;;;;0.40;0.40;;;;;;;7.25;79.35;100248.16;5050203;28;20240;-66
2023/01/07 00:51:00;;;;;;;0.57;0.57;;;;;;;7.13;79.25;100238.00;5050359;28;20197;-66
2023/01/07 00:53:29;;;;;;;0.60;0.60;;;;;;;7.12;79.27;100240.56;5050237;28;20196;-66
2023/01/07 00:55:56;;;;;;;0.83;0.83;;;;;;;7.16;78.60;100252.44;5050624;28;20204;-66
2023/01/07 00:58:25;;;;;;;0.57;0.57;;;;;;;7.12;79.39;100256.69;5050801;28;20634;-67
2023/01/07 01:00:54;;;;;;;0.60;0.60;;;;;;;7.11;79.07;100249.06;5054031;28;20203;-66
2023/01/07 01:03:23;;;;;;;0.83;0.83;;;;;;;6.98;79.58;100258.44;5053395;28;20646;-67
2023/01/07 01:05:50;;;;;;;0.53;0.53;;;;;;;6.99;79.05;100259.28;5053780;28;20196;-66
2023/01/07 01:08:17;;;;;;;0.50;0.50;;;;;;;6.87;78.88;100255.06;5051399;28;20278;-67
2023/01/07 01:10:44;;;;;;;0.80;0.80;;;;;;;6.85;79.51;100251.66;5053614;28;20672;-66
2023/01/07 01:13:13;;;;;;;0.60;0.60;;;;;;;6.81;79.48;100255.06;5053936;28;20323;-66
2023/01/07 01:15:42;;;;;;;0.70;0.70;;;;;;;6.80;79.70;100250.81;5052410;28;20227;-66
2023/01/07 01:18:08;;;;;;;0.50;0.50;;;;;;;6.74;79.42;100268.66;5052291;28;20201;-66
2023/01/07 01:20:37;;;;;;;0.60;0.60;;;;;;;6.51;78.93;100255.09;5052960;28;20207;-67
2023/01/07 01:23:04;;;;;;;0.53;0.53;;;;;;;6.46;79.54;100254.25;5052606;28;20228;-66
2023/01/07 01:25:31;;;;;;;0.60;0.60;;;;;;;6.35;79.54;100244.06;5053414;28;20197;-66
2023/01/07 01:27:58;;;;;;;0.60;0.60;;;;;;;6.39;79.19;100255.09;5052650;28;20338;-66
2023/01/07 01:30:25;;;;;;;0.50;0.50;;;;;;;6.19;79.94;100257.63;5052751;28;20200;-66
2023/01/07 01:32:52;;;;;;;0.40;0.40;;;;;;;6.24;79.63;100255.91;5053310;28;20223;-66
2023/01/07 01:35:19;;;;;;;0.60;0.60;;;;;;;6.24;80.79;100250.81;5053070;28;20193;-66
2023/01/07 01:37:47;;;;;;;1.20;1.20;;;;;;;6.26;80.91;100244.91;5053248;28;20211;-66
2023/01/07 01:40:14;;;;;;;0.57;0.57;;;;;;;6.20;80.80;100238.97;5052918;28;20207;-66
2023/01/07 01:42:41;;;;;;;0.50;0.50;;;;;;;6.19;80.85;100248.28;5052823;28;20196;-67
2023/01/07 01:45:11;;;;;;;1.10;1.10;;;;;;;6.20;80.40;100244.06;5053124;28;20196;-67
2023/01/07 01:47:42;;;;;;;0.57;0.57;;;;;;;6.19;80.47;100240.66;5052780;28;20208;-66
2023/01/07 01:50:15;;;;;;;0.50;0.50;;;;;;;6.21;80.98;100244.03;5052073;28;20201;-66
2023/01/07 01:52:46;;;;;;;0.50;0.50;;;;;;;6.16;80.90;100240.66;5050876;28;20569;-66
2023/01/07 01:55:19;;;;;;;0.60;0.60;;;;;;;6.15;81.27;100236.41;5051845;28;20211;-66
2023/01/07 01:57:51;;;;;;;0.50;0.50;;;;;;;6.07;80.87;100238.09;5052318;28;20192;-66
2023/01/07 02:00:18;;;;;;;0.60;0.60;;;;;;;5.94;81.03;100225.34;5052831;28;20585;-66
2023/01/07 02:02:48;;;;;;;1.07;1.07;;;;;;;5.98;81.63;100237.25;5052197;28;20201;-67
2023/01/07 02:05:16;;;;;;;0.40;0.40;;;;;;;5.90;82.27;100228.72;5052586;28;20227;-66
2023/01/07 02:07:43;;;;;;;0.70;0.70;;;;;;;5.96;82.20;100237.22;5052377;28;20224;-66
2023/01/07 02:10:13;;;;;;;0.60;0.60;;;;;;;5.95;82.76;100238.06;5052028;28;20546;-66
2023/01/07 02:12:50;;;;;;;0.60;0.60;;;;;;;5.92;82.75;100232.13;5052543;28;20196;-66
2023/01/07 02:15:26;;;;;;;0.50;0.50;;;;;;;5.95;82.83;100238.06;5052236;28;20208;-66
2023/01/07 02:18:13;;;;;;;0.60;0.60;;;;;;;5.94;83.21;100231.28;5050326;28;20196;-66
2023/01/07 02:21:08;;;;;;;0.60;0.60;;;;;;;5.72;83.00;100198.97;5051450;28;20683;-67
2023/01/07 02:24:13;;;;;;;0.50;0.50;;;;;;;5.94;83.37;100238.94;5052575;28;20620;-66
2023/01/07 02:27:08;;;;;;;0.60;0.60;;;;;;;5.95;82.95;100245.69;5017482;28;20208;-66
2023/01/07 02:30:02;;;;;;;0.53;0.53;;;;;;;5.86;83.01;100222.78;5052294;28;20239;-66
2023/01/07 02:32:48;;;;;;;0.43;0.43;;;;;;;5.90;82.61;100244.00;5050928;28;20605;-66
2023/01/07 02:35:30;;;;;;;1.03;1.03;;;;;;;5.87;82.59;100239.75;5051358;28;20204;-66
2023/01/07 02:38:03;;;;;;;0.50;0.50;;;;;;;5.87;82.47;100238.91;5051935;28;20189;-66
2023/01/07 02:40:38;;;;;;;0.60;0.60;;;;;;;5.84;82.61;100239.72;5051871;28;20573;-66
2023/01/07 02:43:12;;;;;;;0.40;0.40;;;;;;;5.86;82.82;100248.22;5051638;28;20577;-66
2023/01/07 02:45:45;;;;;;;0.60;0.60;;;;;;;5.72;83.09;100224.41;5051514;28;20204;-66
2023/01/07 02:48:16;;;;;;;0.50;0.50;;;;;;;5.83;82.54;100249.03;5051576;28;20267;-66
2023/01/07 02:50:43;;;;;;;0.70;0.70;;;;;;;5.60;82.60;100225.22;5051671;28;20600;-66
2023/01/07 02:53:17;;;;;;;0.70;0.70;;;;;;;5.68;82.64;100253.25;5051880;28;20739;-66
2023/01/07 02:55:58;;;;;;;0.80;0.80;;;;;;;5.67;83.05;100247.31;5051046;28;20204;-66
2023/01/07 02:58:43;;;;;;;0.50;0.50;;;;;;;5.63;82.93;100253.22;5050660;28;20196;-66
2023/01/07 03:01:36;;;;;;;0.50;0.50;;;;;;;5.63;82.91;100249.81;5051071;28;20199;-67
2023/01/07 03:04:18;;;;;;;0.73;0.73;;;;;;;5.63;83.14;100240.50;5049977;28;20708;-67
2023/01/07 03:07:04;;;;;;;2.10;1.53;;;;;;;5.65;82.74;100254.09;5051027;28;20665;-66
2023/01/07 03:09:41;;;;;;;0.50;0.50;;;;;;;5.61;82.31;100266.78;5050785;28;20282;-66
2023/01/07 03:12:14;;;;;;;0.73;0.73;;;;;;;5.41;82.36;100263.31;5049653;28;20203;-66
2023/01/07 03:14:46;;;;;;;2.63;0.83;;;;;;;5.18;83.48;100241.16;5051218;28;20673;-66
2023/01/07 03:17:20;;;;;;;0.60;0.60;;;;;;;5.13;84.91;100247.94;5051444;28;20254;-66
2023/01/07 03:19:53;;;;;;;0.60;0.60;;;;;;;5.05;85.07;100259.72;5050691;28;20196;-67
2023/01/07 03:22:23;;;;;;;0.60;0.60;;;;;;;5.01;85.57;100263.09;5049988;28;20224;-66
2023/01/07 03:24:53;;;;;;;0.50;0.50;;;;;;;5.03;85.41;100263.97;5051018;28;20208;-67
2023/01/07 03:27:21;;;;;;;0.70;0.70;;;;;;;4.94;85.46;100256.31;5050962;28;20200;-66
2023/01/07 03:29:49;;;;;;;1.13;1.13;;;;;;;4.99;85.92;100264.78;5050317;28;20267;-66
2023/01/07 03:32:19;;;;;;;0.50;0.50;;;;;;;4.98;86.01;100263.06;5051022;28;20673;-66
2023/01/07 03:34:46;;;;;;;0.50;0.50;;;;;;;4.91;86.09;100256.25;5050613;28;20197;-66
2023/01/07 03:37:17;;;;;;;0.80;0.80;;;;;;;4.99;85.92;100258.84;5051092;28;20668;-66
2023/01/07 03:39:45;;;;;;;1.10;1.10;;;;;;;5.00;86.57;100251.25;5050607;28;20201;-66
2023/01/07 03:44:59;;;;;;;0.80;0.80;;;;;;;4.83;86.47;100252.81;5050150;28;20258;-66
2023/01/07 03:47:27;;;;;;;0.57;0.57;;;;;;;4.89;86.67;100257.94;5050205;28;20196;-66
2023/01/07 03:49:54;;;;;;;0.50;0.50;;;;;;;4.82;86.95;100256.19;5050150;28;20217;-66
2023/01/07 03:52:22;;;;;;;0.57;0.57;;;;;;;4.90;87.29;100261.34;5050492;28;20200;-66
2023/01/07 03:54:49;;;;;;;0.80;0.80;;;;;;;4.93;87.71;100262.22;5050515;28;20664;-66
2023/01/07 03:57:16;;;;;;;0.67;0.67;;;;;;;4.91;87.20;100250.34;5050216;28;20212;-66
2023/01/07 03:59:42;;;;;;;0.50;0.50;;;;;;;4.99;87.15;100248.69;5050545;28;20203;-66
2023/01/07 04:02:09;;;;;;;0.50;0.50;;;;;;;4.99;86.90;100241.06;5050555;28;20200;-66
2023/01/07 04:04:36;;;;;;;0.60;0.60;;;;;;;4.87;86.75;100228.28;5050343;28;20275;-66
2023/01/07 04:07:03;;;;;;;0.70;0.70;;;;;;;4.92;86.88;100242.72;5050104;28;20193;-66
2023/01/07 04:09:31;;;;;;;0.57;0.57;;;;;;;4.98;86.62;100258.00;5050663;28;20581;-66
2023/01/07 04:11:58;;;;;;;0.50;0.50;;;;;;;4.95;86.49;100268.13;5049816;28;20227;-66
2023/01/07 04:14:24;;;;;;;0.53;0.53;;;;;;;4.97;86.70;100266.47;5050376;28;20259;-66
2023/01/07 04:16:51;;;;;;;0.50;0.50;;;;;;;4.99;86.52;100269.88;5049897;28;20207;-66
2023/01/07 04:19:18;;;;;;;0.70;0.70;;;;;;;4.90;87.35;100279.13;5050098;28;20197;-66
2023/01/07 04:21:45;;;;;;;1.20;1.20;;;;;;;4.75;86.77;100259.53;5050040;28;20201;-66
2023/01/07 04:24:12;;;;;;;0.70;0.70;;;;;;;4.80;86.90;100268.03;5050157;28;20207;-67
2023/01/07 04:26:40;;;;;;;0.50;0.50;;;;;;;4.81;87.32;100264.69;5050383;28;20192;-66
2023/01/07 04:29:07;;;;;;;0.60;0.60;;;;;;;4.76;87.54;100276.47;5049879;28;20248;-66
2023/01/07 04:31:34;;;;;;;0.60;0.60;;;;;;;4.72;87.66;100269.66;5050124;28;20201;-66
2023/01/07 04:34:01;;;;;;;0.70;0.70;;;;;;;4.73;87.21;100286.63;5053245;28;20200;-66
2023/01/07 04:36:28;;;;;;;0.60;0.60;;;;;;;4.76;88.07;100282.41;5054134;28;20261;-66
2023/01/07 04:38:54;;;;;;;0.50;0.50;;;;;;;4.66;87.98;100269.63;5054136;28;20197;-66
2023/01/07 04:41:21;;;;;;;0.60;0.60;;;;;;;4.61;88.03;100291.63;5053920;28;20678;-65
2023/01/07 04:43:49;;;;;;;0.60;0.60;;;;;;;4.32;88.89;100283.75;5054012;28;20199;-66
2023/01/07 04:46:16;;;;;;;0.60;0.60;;;;;;;4.12;90.13;100281.03;5054110;28;20665;-66
2023/01/07 04:48:43;;;;;;;0.60;0.60;;;;;;;4.13;90.84;100269.19;5050879;28;20220;-66
2023/01/07 04:51:10;;;;;;;0.63;0.63;;;;;;;4.26;91.24;100282.84;5053719;28;20208;-66
2023/01/07 04:53:36;;;;;;;0.70;0.70;;;;;;;4.18;91.65;100288.69;5053573;28;20192;-66
2023/01/07 04:56:05;;;;;;;0.60;0.60;;;;;;;4.26;92.13;100285.38;5053524;28;20201;-66
2023/01/07 04:58:32;;;;;;;0.70;0.70;;;;;;;4.19;91.86;100292.94;5053285;28;20193;-66
2023/01/07 05:01:01;;;;;;;0.57;0.57;;;;;;;4.17;92.15;100289.53;5053477;28;20561;-66
2023/01/07 05:03:28;;;;;;;0.60;0.60;;;;;;;4.13;91.87;100297.09;5053400;28;20720;-66
2023/01/07 05:05:55;;;;;;;0.60;0.60;;;;;;;4.13;91.48;100307.25;5053873;28;20201;-66
2023/01/07 05:08:22;;;;;;;0.60;0.60;;;;;;;4.06;92.26;100297.88;5053533;28;20200;-66
2023/01/07 05:10:49;;;;;;;0.60;0.60;;;;;;;4.10;92.53;100308.03;5053229;28;20205;-66
2023/01/07 05:13:17;;;;;;;0.60;0.60;;;;;;;4.09;92.41;100298.75;5053011;28;20255;-66
2023/01/07 05:15:45;;;;;;;0.60;0.60;;;;;;;4.07;92.15;100297.88;5053506;28;20200;-66
2023/01/07 05:18:14;;;;;;;0.60;0.60;;;;;;;4.11;92.10;100309.75;5053317;28;20207;-66
2023/01/07 05:20:41;;;;;;;0.60;0.60;;;;;;;4.14;92.26;100308.94;5053335;28;20711;-66
2023/01/07 05:23:08;;;;;;;0.50;0.50;;;;;;;4.11;92.48;100313.97;5052871;28;20193;-66
2023/01/07 05:25:35;;;;;;;0.60;0.60;;;;;;;4.10;91.35;100308.03;5053143;28;20205;-66
2023/01/07 05:28:02;;;;;;;0.50;0.50;;;;;;;4.12;91.71;100313.16;5052917;28;20200;-66
2023/01/07 05:30:29;;;;;;;0.77;0.77;;;;;;;4.11;91.73;100314.84;5052900;28;20219;-66
2023/01/07 05:32:56;;;;;;;0.50;0.50;;;;;;;3.99;91.68;100294.41;5053046;28;20204;-66
2023/01/07 05:35:24;;;;;;;0.50;0.50;;;;;;;4.08;91.87;100317.34;5052512;28;20204;-66
2023/01/07 05:37:51;;;;;;;0.60;0.60;;;;;;;3.89;91.84;100315.44;5053348;28;20626;-66
2023/01/07 05:40:18;;;;;;;0.50;0.50;;;;;;;3.87;92.78;100319.66;5052890;28;20197;-65
2023/01/07 05:42:44;;;;;;;0.80;0.80;;;;;;;3.87;92.87;100318.81;5052729;28;20201;-66
2023/01/07 05:45:12;;;;;;;0.50;0.50;;;;;;;3.88;93.08;100321.34;5051047;28;20211;-66
2023/01/07 05:47:38;;;;;;;0.70;0.70;;;;;;;3.92;93.45;100315.47;5053244;28;20738;-66
2023/01/07 05:50:06;;;;;;;0.57;0.57;;;;;;;3.94;92.76;100320.59;5052801;28;20212;-66
2023/01/07 05:52:34;;;;;;;0.80;0.80;;;;;;;3.97;92.52;100326.53;5052620;28;20204;-66
2023/01/07 05:55:01;;;;;;;0.60;0.60;;;;;;;3.96;91.93;100322.28;5052869;28;20204;-66
2023/01/07 05:57:28;;;;;;;0.60;0.60;;;;;;;3.90;91.34;100324.75;5052367;28;20203;-66
2023/01/07 05:59:55;;;;;;;0.60;0.60;;;;;;;3.96;91.57;100334.97;5045005;28;20220;-66
2023/01/07 06:02:22;;;;;;;0.73;0.73;;;;;;;3.98;90.64;100333.28;5047964;28;20220;-66
2023/01/07 06:04:49;;;;;;;0.50;0.50;;;;;;;3.94;90.76;100336.63;5046100;28;20260;-66
2023/01/07 06:07:16;;;;;;;0.60;0.60;;;;;;;3.83;91.13;100333.13;5046034;28;20270;-66
2023/01/07 06:09:44;;;;;;;1.10;1.10;;;;;;;3.77;91.55;100338.13;5047539;28;20215;-66
2023/01/07 06:12:11;;;;;;;1.07;1.07;;;;;;;3.70;92.08;100332.13;5042790;28;20205;-66
2023/01/07 06:14:38;;;;;;;0.60;0.60;;;;;;;3.64;92.84;100341.34;5044423;28;20291;-67
2023/01/07 06:17:05;;;;;;;0.60;0.60;;;;;;;3.61;93.40;100341.31;5048953;28;20265;-66
2023/01/07 06:19:31;;;;;;;0.60;0.60;;;;;;;3.58;93.11;100338.75;5050510;28;20247;-66
2023/01/07 06:21:58;;;;;;;0.60;0.60;;;;;;;3.51;93.25;100350.47;5051952;28;20673;-66
2023/01/07 06:24:25;;;;;;;0.60;0.60;;;;;;;3.53;93.17;100347.94;5051930;28;20201;-66
2023/01/07 06:26:56;;;;;;;0.60;0.60;;;;;;;3.47;93.70;100345.34;5047183;28;20211;-66
2023/01/07 06:29:23;;;;;;;0.57;0.57;;;;;;;3.45;93.58;100349.53;5047187;28;20217;-66
2023/01/07 06:31:49;;;;;;;0.60;0.60;;;;;;;3.37;93.97;100346.03;5051213;28;20200;-66
2023/01/07 06:34:16;;;;;;;0.60;0.60;;;;;;;3.26;94.54;100332.38;5051650;28;20347;-66
2023/01/07 06:36:43;;;;;;;0.60;0.60;;;;;;;3.24;94.69;100344.16;5051868;28;20627;-66
2023/01/07 06:39:11;;;;;;;0.70;0.70;;;;;;;3.24;94.91;100339.09;5050926;28;20246;-66
2023/01/07 06:41:37;;;;;;;0.77;0.77;;;;;;;3.27;94.77;100336.59;5051487;28;20211;-66
2023/01/07 06:44:06;;;;;;;0.60;0.60;;;;;;;3.21;95.13;100344.13;5051367;28;20200;-66
2023/01/07 06:46:33;;;;;;;0.73;0.73;;;;;;;2.99;95.70;100350.56;5049740;28;20200;-66
2023/01/07 06:48:59;;;;;;;0.83;0.83;;;;;;;2.98;97.09;100346.31;5050435;28;20308;-66
2023/01/07 06:51:26;;;;;;;0.73;0.73;;;;;;;2.98;97.77;100347.16;5050100;28;20696;-66
2023/01/07 06:53:53;;;;;;;0.60;0.60;;;;;;;3.06;98.72;100349.84;5050916;28;20204;-66
2023/01/07 06:56:20;;;;;;;0.50;0.50;;;;;;;3.03;99.50;100334.59;5049823;28;20254;-66
2023/01/07 06:58:47;;;;;;;0.60;0.60;;;;;;;3.22;99.58;100350.91;5048624;28;20197;-66
2023/01/07 07:01:15;;;;;;;0.60;0.60;;;;;;;3.29;99.62;100353.56;5050871;28;20200;-66
2023/01/07 07:03:42;;;;;;;0.73;0.73;;;;;;;3.35;99.67;100352.78;5050548;28;20220;-66
2023/01/07 07:06:09;;;;;;;1.57;1.57;;;;;;;3.43;99.96;100356.25;5045775;28;20270;-66
2023/01/07 07:08:35;;;;;;;0.50;0.50;;;;;;;3.51;99.84;100349.63;5046890;28;20216;-65
2023/01/07 07:11:02;;;;;;;0.80;0.80;;;;;;;3.47;99.21;100323.38;5048135;28;20847;-66
2023/01/07 07:13:29;;;;;;;0.80;0.80;;;;;;;3.62;99.36;100354.00;5049143;28;20196;-66
2023/01/07 07:15:56;;;;;;;0.80;0.80;;;;;;;3.64;99.26;100356.56;5048573;28;20207;-66
2023/01/07 07:18:25;;;;;;;0.60;0.60;;;;;;;3.56;99.50;100358.13;5049661;28;20200;-66
2023/01/07 07:20:52;;;;;;;0.50;0.50;;;;;;;3.52;100.00;100353.88;5050502;28;20251;-66
2023/01/07 07:23:19;;;;;;;0.50;0.50;;;;;;;3.52;100.00;100358.94;5050773;28;20200;-66
2023/01/07 07:25:46;;;;;;;0.60;0.60;;;;;;;3.63;100.00;100357.38;5051044;28;20205;-66
2023/01/07 07:28:12;;;;;;;0.80;0.80;;;;;;;3.72;100.00;100364.28;5050392;28;20197;-66
2023/01/07 07:30:39;;;;;;;1.10;1.10;;;;;;;3.83;100.00;100368.63;5047873;28;20730;-66
2023/01/07 07:33:06;;;;;;;0.60;0.60;;;;;;;3.88;100.00;100356.84;5049321;28;20201;-66
2023/01/07 07:35:35;;;;;;;0.50;0.50;;;;;;;4.01;100.00;100353.63;5045537;28;21042;-66
2023/01/07 07:38:01;;;;;;;0.60;0.60;;;;;;;4.07;100.00;100352.88;5049662;28;20561;-66
2023/01/07 07:40:28;;;;;;;0.57;0.57;;;;;;;4.17;100.00;100360.56;5050172;28;20287;-67
2023/01/07 07:42:55;;;;;;;0.60;0.60;;;;;;;4.29;100.00;100366.63;5050332;28;20204;-67
2023/01/07 07:45:22;;;;;;;0.60;0.60;;;;;;;4.28;100.00;100367.44;5050227;28;20200;-66
2023/01/07 07:47:48;;;;;;;0.60;0.60;;;;;;;4.34;100.00;100359.91;5046749;28;20669;-66
2023/01/07 07:50:15;;;;;;;0.50;0.50;;;;;;;4.38;99.79;100359.97;5048545;28;20231;-66
2023/01/07 07:52:44;;;;;;;0.60;0.60;;;;;;;4.41;100.00;100364.22;5049959;28;20204;-66
2023/01/07 07:55:11;;;;;;;0.90;0.90;;;;;;;4.48;100.00;100364.28;5050452;28;20208;-65
2023/01/07 07:57:38;;;;;;;0.50;0.50;;;;;;;4.54;100.00;100368.56;5048554;28;20205;-66
2023/01/07 08:00:07;;;;;;;0.60;0.60;;;;;;;4.66;100.00;100371.22;5050352;28;20196;-66
2023/01/07 08:02:34;;;;;;;0.50;0.50;;;;;;;4.83;100.00;100374.75;5050479;28;20745;-65
2023/01/07 08:05:00;;;;;;;0.60;0.60;;;;;;;4.85;99.94;100369.72;5050316;28;20738;-66
2023/01/07 08:07:27;;;;;;;0.67;0.67;;;;;;;5.00;99.32;100364.75;5050567;28;20204;-66
2023/01/07 08:09:55;;;;;;;2.00;1.90;;;;;;;5.20;100.00;100364.03;5051170;28;20220;-65
2023/01/07 08:12:22;;;;;;;0.50;0.50;;;;;;;5.47;98.59;100365.03;5050374;28;20274;-67
2023/01/07 08:14:49;;;;;;;0.60;0.60;;;;;;;5.61;97.44;100358.34;5049926;28;20205;-67
2023/01/07 08:17:16;;;;;;;0.53;0.53;;;;;;;5.77;96.33;100360.97;5050082;28;20287;-67
2023/01/07 08:19:42;;;;;;;0.50;0.50;;;;;;;5.86;95.13;100355.09;5049645;28;20638;-67
2023/01/07 08:22:09;;;;;;;0.60;0.60;;;;;;;6.00;94.57;100352.63;5050360;28;20204;-67
2023/01/07 08:24:36;;;;;;;0.60;0.60;;;;;;;6.12;93.48;100352.66;5049389;28;20205;-67
2023/01/07 08:27:04;;;;;;;0.60;0.60;;;;;;;6.17;92.96;100356.91;5049381;28;20201;-67
2023/01/07 08:29:31;;;;;;;0.60;0.60;;;;;;;6.17;92.68;100336.53;5046991;28;20208;-67
2023/01/07 08:31:57;;;;;;;0.50;0.50;;;;;;;6.44;92.60;100347.63;5042983;28;20251;-67
2023/01/07 08:34:24;;;;;;;0.50;0.50;;;;;;;6.43;92.61;100341.66;5043489;28;20212;-67
2023/01/07 08:36:51;;;;;;;0.50;0.50;;;;;;;6.56;92.55;100345.13;5047616;28;20703;-66
2023/01/07 08:39:18;;;;;;;0.70;0.70;;;;;;;6.69;92.35;100347.66;5047797;28;20212;-67
2023/01/07 08:41:45;;;;;;;0.50;0.50;;;;;;;6.85;91.84;100353.59;5048185;28;20201;-67
2023/01/07 08:44:13;;;;;;;0.57;0.57;;;;;;;7.01;91.87;100349.38;5049252;28;20196;-67
2023/01/07 08:46:40;;;;;;;0.50;0.50;;;;;;;7.13;91.45;100355.31;5048847;28;20212;-67
2023/01/07 08:49:07;;;;;;;0.50;0.50;;;;;;;7.16;91.79;100331.50;5047748;28;20733;-67
2023/01/07 08:51:34;;;;;;;0.40;0.40;;;;;;;7.42;90.81;100347.59;5047719;28;20270;-67
2023/01/07 08:54:01;;;;;;;0.50;0.50;;;;;;;7.52;91.05;100336.53;5049194;28;20203;-68
2023/01/07 08:56:27;;;;;;;0.50;0.50;;;;;;;7.67;90.36;100333.06;5049793;28;20215;-67
2023/01/07 08:58:54;;;;;;;0.50;0.50;;;;;;;7.70;89.65;100318.59;5048423;28;20205;-67
2023/01/07 09:01:22;;;;;;;0.50;0.50;;;;;;;7.84;88.37;100332.16;5049569;28;20223;-67
2023/01/07 09:03:49;;;;;;;0.50;0.50;;;;;;;7.86;87.88;100315.13;5048475;28;20224;-66
2023/01/07 09:06:16;;;;;;;0.43;0.43;;;;;;;8.15;87.77;100316.66;5047179;28;20704;-67
2023/01/07 09:08:43;;;;;;;0.53;0.53;;;;;;;8.23;87.35;100315.78;5048580;28;20619;-67
2023/01/07 09:11:09;;;;;;;0.50;0.50;;;;;;;8.37;86.97;100314.00;5049012;28;20216;-67
2023/01/07 09:13:36;;;;;;;0.80;0.80;;;;;;;8.57;87.49;100316.41;5049799;28;20254;-67
2023/01/07 09:16:03;;;;;;;0.60;0.60;;;;;;;8.60;87.07;100300.19;5050386;28;20701;-67
2023/01/07 09:18:31;;;;;;;0.50;0.50;;;;;;;8.80;86.02;100303.44;5048545;28;20193;-67
2023/01/07 09:20:58;;;;;;;0.50;0.50;;;;;;;8.87;85.24;100305.09;5051699;28;20197;-67
2023/01/07 09:23:25;;;;;;;0.50;0.50;;;;;;;8.98;84.78;100301.56;5052247;28;20242;-67
2023/01/07 09:25:52;;;;;;;0.40;0.40;;;;;;;9.06;85.00;100295.53;5052177;28;20266;-67
2023/01/07 09:28:18;;;;;;;0.50;0.50;;;;;;;9.14;84.57;100289.50;5052720;28;20208;-67
2023/01/07 09:30:45;;;;;;;0.47;0.47;;;;;;;9.19;84.20;100268.97;5052033;28;20228;-67
2023/01/07 09:33:12;;;;;;;0.50;0.50;;;;;;;9.34;84.83;100276.47;5052659;28;20212;-67
2023/01/07 09:35:40;;;;;;;0.43;0.43;;;;;;;9.48;83.33;100280.59;5051076;28;20909;-68
2023/01/07 09:38:07;;;;;;;0.50;0.50;;;;;;;9.57;83.05;100269.38;5050573;28;20209;-67
2023/01/07 09:40:37;;;;;;;0.50;0.50;;;;;;;9.69;84.30;100263.28;5052541;28;20212;-67
2023/01/07 09:43:11;;;;;;;0.40;0.40;;;;;;;9.78;82.59;100263.16;5051534;28;20201;-67
2023/01/07 09:45:42;;;;;;;0.57;0.57;;;;;;;9.77;82.14;100256.31;5051711;28;20216;-67
2023/01/07 09:48:20;;;;;;;0.50;0.50;;;;;;;9.84;81.92;100245.13;5052136;28;20200;-67
2023/01/07 09:50:54;;;;;;;0.40;0.40;;;;;;;9.99;82.08;100252.59;5051352;28;20270;-67
2023/01/07 09:53:26;;;;;;;0.30;0.30;;;;;;;10.09;81.46;100243.91;5053189;28;20690;-67
2023/01/07 09:55:55;;;;;;;0.70;0.70;;;;;;;10.12;80.23;100248.13;5051383;28;20200;-67
2023/01/07 09:58:23;;;;;;;0.60;0.60;;;;;;;10.03;79.45;100218.41;5053157;28;20197;-67
2023/01/07 10:00:58;;;;;;;0.53;0.53;;;;;;;10.28;80.20;100235.09;5053900;28;20646;-68
2023/01/07 10:03:37;;;;;;;1.53;1.53;;;;;;;10.36;79.49;100228.16;5050223;28;20258;-67
2023/01/07 10:06:11;;;;;;;0.40;0.40;;;;;;;10.52;80.33;100228.75;5052546;28;20649;-68
2023/01/07 10:08:47;;;;;;;0.67;0.67;;;;;;;10.56;79.13;100209.03;5051509;28;20270;-66
2023/01/07 10:11:23;;;;;;;0.50;0.50;;;;;;;10.76;77.71;100205.22;5047974;28;20839;-62
2023/01/07 10:14:09;;;;;;;0.60;0.60;;;;;;;10.90;77.54;100204.97;5049019;28;20867;-62
2023/01/07 10:16:45;;;;;;;0.60;0.60;;;;;;;10.99;77.75;100197.09;5048206;28;20208;-62
2023/01/07 10:19:20;;;;;;;0.50;0.50;;;;;;;11.10;76.06;100186.66;5050867;28;20673;-62
2023/01/07 10:21:53;;;;;;;0.50;0.50;;;;;;;11.11;77.94;100178.94;5051175;28;20249;-62
2023/01/07 10:24:26;;;;;;;0.50;0.50;;;;;;;11.29;77.36;100188.81;5049650;28;20208;-62
2023/01/07 10:26:56;;;;;;;0.50;0.50;;;;;;;11.21;75.53;100193.25;5050413;28;20247;-62
2023/01/07 10:29:29;;;;;;;0.50;0.50;;;;;;;11.28;74.93;100181.97;5051324;28;20978;-62
2023/01/07 10:31:59;;;;;;;0.50;0.50;;;;;;;11.42;75.56;100184.28;5050711;28;20220;-62
2023/01/07 10:34:32;;;;;;;0.40;0.40;;;;;;;11.46;75.33;100175.63;5051435;28;20573;-62
2023/01/07 10:37:03;;;;;;;0.40;0.40;;;;;;;11.59;75.48;100177.91;5050895;28;20209;-62
2023/01/07 10:39:43;;;;;;;0.50;0.50;;;;;;;11.48;74.89;100177.28;5051519;28;20291;-62
2023/01/07 10:42:21;;;;;;;0.50;0.50;;;;;;;11.67;75.88;100170.00;5051223;28;20909;-62
2023/01/07 10:45:23;;;;;;;0.43;0.43;;;;;;;11.81;73.95;100167.19;5051823;28;20699;-62
2023/01/07 10:48:21;;;;;;;0.47;0.47;;;;;;;11.83;73.13;100166.25;5051965;28;20691;-62
2023/01/07 10:51:01;;;;;;;0.87;0.87;;;;;;;11.94;74.24;100153.16;5049102;28;20221;-62
2023/01/07 10:53:41;;;;;;;0.40;0.40;;;;;;;11.97;73.37;100143.66;5051681;28;20196;-62
2023/01/07 10:56:23;;;;;;;0.50;0.50;;;;;;;11.96;72.83;100144.53;5051764;28;20204;-62
2023/01/07 10:58:50;;;;;;;0.57;0.57;;;;;;;12.02;72.47;100140.97;5051515;28;20200;-62
2023/01/07 11:01:24;;;;;;;0.50;0.50;;;;;;;12.19;73.39;100128.56;5051620;28;20208;-62
2023/01/07 11:03:53;;;;;;;0.40;0.40;;;;;;;12.26;71.62;100124.94;5051047;28;20227;-61
2023/01/07 11:06:34;;;;;;;0.40;0.40;;;;;;;12.25;71.36;100118.09;5051221;28;20745;-61
2023/01/07 11:09:04;;;;;;;0.40;0.40;;;;;;;12.43;71.26;100116.81;5049752;28;20196;-61
2023/01/07 11:11:32;;;;;;;0.40;0.40;;;;;;;12.45;70.38;100115.88;5051216;28;20216;-61
2023/01/07 11:14:03;;;;;;;0.30;0.30;;;;;;;12.50;70.68;100103.72;5051438;28;20208;-61
2023/01/07 11:16:36;;;;;;;0.50;0.50;;;;;;;12.62;69.95;100103.41;5050867;28;20200;-61
2023/01/07 11:19:05;;;;;;;0.40;0.40;;;;;;;12.65;70.53;100102.47;5051333;28;20205;-62
2023/01/07 11:21:34;;;;;;;0.50;0.50;;;;;;;12.59;70.75;100082.94;5051229;28;20695;-62
2023/01/07 11:24:21;;;;;;;0.40;0.40;;;;;;;12.84;69.73;100098.50;5051318;28;20200;-62
2023/01/07 11:26:49;;;;;;;0.50;0.50;;;;;;;12.88;68.92;100097.53;5034524;28;20573;-62
2023/01/07 11:29:21;;;;;;;0.50;0.50;;;;;;;12.97;69.08;100089.56;5050896;28;20197;-62
2023/01/07 11:31:50;;;;;;;0.93;0.93;;;;;;;12.94;68.20;100089.66;5050307;28;20235;-62
2023/01/07 11:34:22;;;;;;;0.50;0.50;;;;;;;12.96;67.13;100098.16;5051136;28;20200;-62
2023/01/07 11:36:49;;;;;;;0.50;0.50;;;;;;;13.03;67.19;100088.53;5051021;28;20201;-61
2023/01/07 11:39:22;;;;;;;0.60;0.60;;;;;;;13.04;67.57;100074.78;5050882;28;20197;-62
2023/01/07 11:41:56;;;;;;;0.50;0.50;;;;;;;13.14;67.21;100076.22;5048992;28;20203;-62
2023/01/07 11:44:22;;;;;;;0.63;0.63;;;;;;;13.04;66.93;100059.34;5050797;28;20211;-61
2023/01/07 11:46:50;;;;;;;0.40;0.40;;;;;;;13.20;66.95;100075.19;5050538;28;20208;-61